Time;durP1;ratioP1;P1;durP2;ratioP2;P2;SDS_P1;SDS_P2;PMS_P1;PMS_P2;Temp;Humidity;BMP_temperature;BMP_pressure;BME280_temperature;BME280_humidity;BME280_pressure;Samples;Min_cycle;Max_cycle;Signal;HPM_P1;HPM_P2
2023/11/26 00:02:20;;;;;;;2.72;1.90;;;;;;;1.65;74.46;91961.56;2044765;70;20233;-82
2023/11/26 00:04:49;;;;;;;2.97;1.90;;;;;;;1.67;74.55;91964.50;2048207;70;20137;-83
2023/11/26 00:07:17;;;;;;;2.20;1.67;;;;;;;1.65;74.93;91969.91;2044666;70;20218;-83
2023/11/26 00:09:48;;;;;;;3.40;1.67;;;;;;;1.70;74.79;91970.97;2048210;70;20186;-84
2023/11/26 00:12:17;;;;;;;3.15;1.92;;;;;;;1.68;75.07;91977.06;2048367;70;20171;-83
2023/11/26 00:14:43;;;;;;;3.50;1.50;;;;;;;1.69;74.98;91972.25;2048311;70;20278;-83
2023/11/26 00:17:14;;;;;;;2.80;1.60;;;;;;;1.60;75.29;91981.22;2047989;70;20154;-82
2023/11/26 00:19:41;;;;;;;3.20;1.70;;;;;;;1.56;75.83;91984.41;2048201;70;20242;-84
2023/11/26 00:22:06;;;;;;;2.75;1.83;;;;;;;1.52;76.61;91986.84;2048068;70;20194;-83
2023/11/26 00:24:32;;;;;;;2.97;2.03;;;;;;;1.52;75.78;91989.63;2048097;70;20181;-81
2023/11/26 00:26:58;;;;;;;5.65;2.20;;;;;;;1.66;75.62;91990.06;2048062;70;20139;-81
2023/11/26 00:29:26;;;;;;;3.38;2.20;;;;;;;1.49;76.43;91985.22;2048114;70;20186;-83
2023/11/26 00:31:52;;;;;;;2.70;1.70;;;;;;;1.64;75.90;91996.16;2044397;70;20151;-83
2023/11/26 00:34:17;;;;;;;2.50;1.67;;;;;;;1.26;77.40;91994.47;2048115;70;20248;-83
2023/11/26 00:36:43;;;;;;;3.42;1.77;;;;;;;1.40;77.46;91983.81;2044368;70;20182;-84
2023/11/26 00:39:09;;;;;;;2.80;1.40;;;;;;;1.37;77.75;91984.22;2044480;70;20145;-82
2023/11/26 00:41:35;;;;;;;2.33;1.50;;;;;;;1.27;78.93;91978.56;2044347;70;20146;-83
2023/11/26 00:44:01;;;;;;;1.73;1.20;;;;;;;1.56;77.00;91967.78;2044296;70;20246;-83
2023/11/26 00:46:27;;;;;;;1.73;1.33;;;;;;;1.58;76.50;91961.66;2047040;70;20625;-83
2023/11/26 00:48:52;;;;;;;1.67;1.20;;;;;;;0.90;79.38;91942.28;2044161;70;20591;-82
2023/11/26 00:51:19;;;;;;;2.05;1.05;;;;;;;1.37;78.67;91970.34;2044431;70;20512;-83
2023/11/26 00:53:45;;;;;;;2.25;1.33;;;;;;;1.53;77.38;91963.34;2047843;70;20150;-83
2023/11/26 00:56:11;;;;;;;4.20;1.42;;;;;;;1.63;77.06;91972.50;2044352;70;20630;-82
2023/11/26 00:58:36;;;;;;;2.13;1.30;;;;;;;1.68;76.67;91979.84;2047990;70;20603;-82
2023/11/26 01:01:02;;;;;;;2.13;1.48;;;;;;;1.38;78.08;91991.97;2038447;70;20161;-83
2023/11/26 01:03:28;;;;;;;1.48;1.30;;;;;;;1.37;78.21;91979.41;2047460;70;20701;-83
2023/11/26 01:05:54;;;;;;;2.20;1.65;;;;;;;1.61;77.68;91985.47;2044348;70;20162;-83
2023/11/26 01:08:21;;;;;;;3.20;1.52;;;;;;;1.51;77.79;91980.56;2044310;70;20139;-83
2023/11/26 01:10:47;;;;;;;1.55;1.20;;;;;;;1.31;78.26;91980.94;2047935;70;20162;-84
2023/11/26 01:13:12;;;;;;;3.05;1.60;;;;;;;1.36;78.81;91980.69;2044154;70;20155;-83
2023/11/26 01:15:38;;;;;;;1.67;1.35;;;;;;;1.40;77.93;91983.81;2044060;70;20127;-83
2023/11/26 01:18:04;;;;;;;2.55;1.42;;;;;;;1.02;79.96;91967.53;2047897;70;20626;-83
2023/11/26 01:20:30;;;;;;;2.55;1.45;;;;;;;1.06;80.72;91978.22;2038691;70;20261;-83
2023/11/26 01:22:55;;;;;;;1.55;1.33;;;;;;;1.42;79.12;91988.78;2047880;70;20159;-84
2023/11/26 01:25:21;;;;;;;2.65;1.52;;;;;;;1.56;78.01;92001.06;2044528;70;20205;-83
2023/11/26 01:27:47;;;;;;;1.70;1.27;;;;;;;1.61;77.66;92002.13;2044286;70;20518;-83
2023/11/26 01:30:13;;;;;;;3.30;1.50;;;;;;;1.67;77.47;92008.16;2048563;70;20164;-83
2023/11/26 01:32:38;;;;;;;1.83;1.38;;;;;;;1.66;77.75;92001.88;2050796;70;20174;-82
2023/11/26 01:35:05;;;;;;;1.42;1.00;;;;;;;1.74;76.63;92004.56;2051093;70;20666;-83
2023/11/26 01:37:33;;;;;;;1.52;1.30;;;;;;;1.81;76.71;92014.13;2044808;70;20221;-84
2023/11/26 01:39:59;;;;;;;1.63;1.30;;;;;;;1.73;76.48;91992.00;2050483;70;20150;-82
2023/11/26 01:42:25;;;;;;;1.60;1.45;;;;;;;1.85;76.50;92017.22;2051009;70;20154;-82
2023/11/26 01:44:51;;;;;;;1.52;1.25;;;;;;;1.81;76.40;92023.19;2047597;70;20142;-83
2023/11/26 01:47:17;;;;;;;2.70;1.20;;;;;;;1.85;75.17;92020.75;2050957;70;20507;-84
2023/11/26 01:49:45;;;;;;;1.80;1.15;;;;;;;1.83;75.78;92003.91;2051129;70;20161;-84
2023/11/26 01:52:14;;;;;;;1.52;1.20;;;;;;;1.67;77.40;92019.25;2044887;70;20143;-84
2023/11/26 01:54:42;;;;;;;1.30;1.20;;;;;;;1.63;78.51;92027.25;2044798;70;20142;-84
2023/11/26 01:57:10;;;;;;;1.65;1.08;;;;;;;1.67;78.60;92036.63;2050973;70;20142;-84
2023/11/26 01:59:37;;;;;;;1.30;1.10;;;;;;;1.67;78.37;92031.09;2047305;70;20142;-84
2023/11/26 02:02:03;;;;;;;1.10;1.00;;;;;;;1.49;79.45;92012.94;2047464;70;20142;-84
2023/11/26 02:04:29;;;;;;;1.33;1.00;;;;;;;1.71;77.53;92017.56;2047642;70;20222;-83
2023/11/26 02:06:56;;;;;;;1.10;1.00;;;;;;;1.78;77.49;92013.94;2051077;70;20164;-83
2023/11/26 02:09:22;;;;;;;1.80;1.30;;;;;;;1.81;77.54;92017.63;2050979;70;20582;-83
2023/11/26 02:11:51;;;;;;;1.20;0.98;;;;;;;1.89;77.36;92026.63;2051055;70;20138;-83
2023/11/26 02:14:16;;;;;;;1.20;1.00;;;;;;;1.85;77.60;92028.34;2047715;70;20162;-83
2023/11/26 02:16:49;;;;;;;0.90;0.70;;;;;;;1.47;78.61;92026.66;2051149;70;20151;-83
2023/11/26 02:19:31;;;;;;;1.20;1.00;;;;;;;1.40;79.67;92028.19;2047739;70;20151;-83
2023/11/26 02:21:57;;;;;;;1.20;0.80;;;;;;;1.72;78.87;92051.59;2047732;70;20190;-83
2023/11/26 02:24:28;;;;;;;1.52;0.88;;;;;;;1.75;78.55;92042.84;2047806;70;20361;-81
2023/11/26 02:26:55;;;;;;;;;;;;;;;1.48;80.00;92042.72;2051079;70;20134;-83
2023/11/26 02:29:21;;;;;;;1.70;1.20;;;;;;;1.39;80.75;92034.31;2047671;70;20049;-83
2023/11/26 02:31:47;;;;;;;1.20;0.90;;;;;;;1.64;79.70;92037.78;2050784;70;20246;-84
2023/11/26 02:34:12;;;;;;;1.85;1.00;;;;;;;1.67;79.82;92039.41;2047683;70;20158;-82
2023/11/26 02:36:38;;;;;;;3.47;1.10;;;;;;;1.72;79.01;92044.00;2050981;70;20157;-82
2023/11/26 02:39:07;;;;;;;1.30;1.00;;;;;;;1.35;80.53;92031.19;2047398;70;20170;-82
2023/11/26 02:41:35;;;;;;;1.65;1.15;;;;;;;1.01;82.43;92035.34;2050928;70;20151;-82
2023/11/26 02:44:01;;;;;;;1.40;1.10;;;;;;;1.30;82.39;92054.34;2047422;70;20170;-82
2023/11/26 02:46:27;;;;;;;1.65;1.00;;;;;;;1.67;80.21;92053.28;2050734;70;20161;-83
2023/11/26 02:48:53;;;;;;;1.77;1.48;;;;;;;1.74;79.97;92057.28;2050933;70;20142;-82
2023/11/26 02:51:33;;;;;;;1.40;1.13;;;;;;;1.76;79.40;92066.53;2047820;70;20173;-86
2023/11/26 02:54:05;;;;;;;1.45;1.00;;;;;;;1.57;80.07;92068.38;2048291;70;20329;-82
2023/11/26 02:56:59;;;;;;;1.25;0.90;;;;;;;1.45;79.78;92035.53;2050353;70;20149;-83
2023/11/26 02:59:28;;;;;;;1.58;1.10;;;;;;;1.68;79.15;92051.97;2051012;70;20595;-85
2023/11/26 03:02:03;;;;;;;1.65;1.10;;;;;;;1.71;79.09;92050.84;2047339;70;20216;-85
2023/11/26 03:04:29;;;;;;;1.75;0.98;;;;;;;1.77;79.19;92053.38;2051170;70;20229;-84
2023/11/26 03:06:58;;;;;;;1.63;0.85;;;;;;;1.40;78.03;91992.13;2051426;70;20154;-83
2023/11/26 03:12:53;;;;;;;1.17;0.88;;;;;;;1.88;79.50;92077.13;2048130;70;20244;-81
2023/11/26 03:14:59;;;;;;;1.38;0.95;;;;;;;2.01;77.61;92074.78;2047958;70;20220;-81
2023/11/26 03:17:25;;;;;;;1.27;0.95;;;;;;;1.81;78.27;92047.44;2047890;70;20151;-81
2023/11/26 03:19:51;;;;;;;1.35;0.90;;;;;;;1.85;79.07;92081.06;2051404;70;20574;-82
2023/11/26 03:22:17;;;;;;;1.50;0.98;;;;;;;1.92;79.01;92099.69;2048360;70;20607;-82
2023/11/26 03:24:45;;;;;;;1.08;0.85;;;;;;;1.84;78.59;92090.72;2048377;70;20154;-84
2023/11/26 03:27:13;;;;;;;0.85;0.80;;;;;;;1.68;79.97;92098.41;2051602;70;20146;-84
2023/11/26 03:29:40;;;;;;;1.00;0.90;;;;;;;1.74;80.44;92094.13;2051468;70;20154;-83
2023/11/26 03:32:07;;;;;;;0.50;0.50;;;;;;;1.20;82.64;92096.56;2051247;70;20150;-82
2023/11/26 03:34:33;;;;;;;0.95;0.60;;;;;;;1.51;82.58;92105.41;2051567;70;20753;-83
2023/11/26 03:36:59;;;;;;;0.50;0.50;;;;;;;1.69;80.90;92110.97;2051599;70;20610;-83
2023/11/26 03:39:26;;;;;;;0.88;0.60;;;;;;;1.85;80.07;92097.72;2051332;70;20495;-82
2023/11/26 03:41:52;;;;;;;1.25;0.80;;;;;;;1.80;80.44;92098.69;2051553;70;20162;-84
2023/11/26 03:44:18;;;;;;;1.10;0.70;;;;;;;1.96;78.93;92113.91;2048066;70;20580;-83
2023/11/26 03:46:43;;;;;;;1.00;0.80;;;;;;;1.91;79.20;92123.94;2045251;70;20170;-82
2023/11/26 03:49:09;;;;;;;0.60;0.60;;;;;;;1.87;79.20;92137.47;2051564;70;20174;-82
2023/11/26 03:51:35;;;;;;;1.02;0.93;;;;;;;1.94;79.18;92141.50;2048154;70;20166;-82
2023/11/26 03:54:01;;;;;;;1.23;1.00;;;;;;;2.03;78.87;92146.41;2048146;70;20150;-85
2023/11/26 03:56:27;;;;;;;1.42;1.33;;;;;;;1.80;79.75;92148.66;2051463;70;20157;-80
2023/11/26 03:58:52;;;;;;;0.75;0.70;;;;;;;1.48;81.86;92169.59;2051430;70;20146;-81
2023/11/26 04:01:18;;;;;;;1.35;0.70;;;;;;;1.53;82.51;92177.69;2051347;70;20146;-82
2023/11/26 04:03:43;;;;;;;0.70;0.70;;;;;;;1.61;81.74;92174.13;2047966;70;20150;-81
2023/11/26 04:06:09;;;;;;;0.68;0.60;;;;;;;1.07;85.07;92171.69;2048282;70;20159;-82
2023/11/26 04:08:35;;;;;;;1.17;0.82;;;;;;;1.23;85.13;92197.28;2051319;70;20150;-81
2023/11/26 04:11:00;;;;;;;1.52;1.10;;;;;;;1.01;86.08;92198.88;2051277;70;20130;-82
2023/11/26 04:13:29;;;;;;;1.48;0.95;;;;;;;1.15;85.87;92204.91;2051175;70;20138;-81
2023/11/26 04:15:58;;;;;;;1.02;0.90;;;;;;;1.50;84.74;92209.31;2047844;70;20667;-82
2023/11/26 04:18:27;;;;;;;1.00;0.80;;;;;;;1.67;83.33;92224.59;2048269;70;20190;-80
2023/11/26 04:20:54;;;;;;;1.17;1.02;;;;;;;1.31;84.08;92233.31;2053147;70;20610;-81
2023/11/26 04:23:20;;;;;;;1.00;0.88;;;;;;;1.64;83.67;92229.22;2052078;70;20143;-82
2023/11/26 04:25:46;;;;;;;0.82;0.80;;;;;;;1.68;83.16;92214.97;2051442;70;20158;-82
2023/11/26 04:28:16;;;;;;;1.50;1.13;;;;;;;1.74;82.29;92234.88;2051436;70;20162;-83
2023/11/26 04:30:42;;;;;;;1.23;0.75;;;;;;;1.77;81.93;92240.06;2050288;70;20166;-80
2023/11/26 04:33:07;;;;;;;0.50;0.50;;;;;;;1.81;81.12;92236.16;2043970;70;20155;-82
2023/11/26 04:35:33;;;;;;;0.77;0.57;;;;;;;1.71;81.47;92228.44;2047579;70;20594;-82
2023/11/26 04:37:59;;;;;;;0.70;0.60;;;;;;;1.74;81.17;92229.34;2047821;70;20535;-83
2023/11/26 04:40:25;;;;;;;0.57;0.50;;;;;;;1.82;80.42;92232.06;2047523;70;20143;-84
2023/11/26 04:42:54;;;;;;;0.35;0.35;;;;;;;1.77;79.85;92231.00;2047535;70;21102;-83
2023/11/26 04:45:19;;;;;;;0.50;0.50;;;;;;;1.86;79.34;92238.69;2047767;70;20151;-83
2023/11/26 04:47:46;;;;;;;1.00;0.40;;;;;;;1.78;79.16;92232.47;2047564;70;20177;-83
2023/11/26 04:50:12;;;;;;;0.40;0.40;;;;;;;1.77;79.08;92242.84;2047568;70;20602;-84
2023/11/26 04:52:39;;;;;;;0.47;0.47;;;;;;;1.70;79.49;92251.22;2047552;70;20238;-84
2023/11/26 04:55:05;;;;;;;0.40;0.40;;;;;;;1.78;79.25;92258.19;2044336;70;20154;-81
2023/11/26 04:57:31;;;;;;;0.40;0.40;;;;;;;1.81;79.55;92263.91;2044399;70;20127;-82
2023/11/26 04:59:57;;;;;;;0.63;0.30;;;;;;;1.86;79.29;92265.72;2047843;70;20143;-82
2023/11/26 05:02:23;;;;;;;0.20;0.20;;;;;;;1.83;79.36;92259.25;2044339;70;20143;-82
2023/11/26 05:04:49;;;;;;;0.20;0.20;;;;;;;1.88;78.62;92272.19;2044417;70;20645;-80
2023/11/26 05:07:15;;;;;;;0.25;0.25;;;;;;;1.86;78.87;92272.00;2047909;70;20166;-81
2023/11/26 05:09:40;;;;;;;0.30;0.30;;;;;;;1.85;78.85;92284.41;2048032;70;20142;-81
2023/11/26 05:12:07;;;;;;;0.57;0.30;;;;;;;1.84;78.43;92262.78;2044349;70;20527;-82
2023/11/26 05:14:33;;;;;;;0.40;0.30;;;;;;;1.78;78.72;92269.28;2047805;70;20158;-82
2023/11/26 05:16:59;;;;;;;0.30;0.30;;;;;;;1.82;78.58;92282.78;2047946;70;20142;-83
2023/11/26 05:19:25;;;;;;;1.95;0.47;;;;;;;1.72;78.34;92285.41;2044505;70;20206;-82
2023/11/26 05:21:52;;;;;;;1.00;0.70;;;;;;;1.73;78.53;92294.47;2047846;70;20139;-81
2023/11/26 05:24:18;;;;;;;1.70;0.90;;;;;;;1.73;78.57;92297.97;2047636;70;20190;-82
2023/11/26 05:26:43;;;;;;;3.47;2.00;;;;;;;1.73;78.57;92313.91;2044274;70;20514;-81
2023/11/26 05:29:09;;;;;;;2.10;1.38;;;;;;;1.68;78.28;92321.13;2047975;70;20220;-81
2023/11/26 05:31:34;;;;;;;1.77;1.10;;;;;;;1.66;78.17;92312.66;2048027;70;20224;-83
2023/11/26 05:34:00;;;;;;;2.97;0.75;;;;;;;1.71;78.21;92311.69;2047585;70;20150;-82
2023/11/26 05:36:26;;;;;;;0.55;0.50;;;;;;;1.74;77.98;92324.47;2047688;70;20150;-83
2023/11/26 05:38:52;;;;;;;0.40;0.40;;;;;;;1.68;78.22;92323.91;2047844;70;20155;-82
2023/11/26 05:41:18;;;;;;;0.80;0.70;;;;;;;1.73;77.92;92325.00;2044258;70;20690;-84
2023/11/26 05:43:44;;;;;;;1.80;0.70;;;;;;;1.48;78.77;92328.44;2048047;70;20269;-85
2023/11/26 05:46:10;;;;;;;2.08;1.30;;;;;;;1.49;79.50;92334.72;2047967;70;20163;-83
2023/11/26 05:48:36;;;;;;;1.20;0.90;;;;;;;1.58;79.26;92342.47;2044655;70;20143;-84
2023/11/26 05:51:02;;;;;;;0.98;0.60;;;;;;;1.56;78.44;92344.31;2048110;70;20170;-83
2023/11/26 05:53:28;;;;;;;0.50;0.50;;;;;;;1.58;78.30;92338.97;2048166;70;20139;-83
2023/11/26 05:55:54;;;;;;;0.30;0.30;;;;;;;1.64;78.29;92348.53;2048151;70;20333;-81
2023/11/26 05:58:20;;;;;;;0.40;0.30;;;;;;;1.64;77.76;92358.91;2048057;70;20542;-83
2023/11/26 06:00:46;;;;;;;0.60;0.50;;;;;;;1.64;77.80;92356.84;2044408;70;20591;-84
2023/11/26 06:03:11;;;;;;;1.15;0.70;;;;;;;1.56;77.48;92347.09;2047731;70;20238;-81
2023/11/26 06:05:37;;;;;;;1.05;0.40;;;;;;;1.54;77.87;92350.44;2047925;70;20166;-84
2023/11/26 06:08:03;;;;;;;0.63;0.32;;;;;;;1.64;77.46;92367.22;2044420;70;20187;-82
2023/11/26 06:10:30;;;;;;;1.65;0.40;;;;;;;1.60;77.36;92364.09;2047600;70;20158;-83
2023/11/26 06:12:55;;;;;;;1.00;0.43;;;;;;;1.50;77.46;92361.19;2047563;70;20184;-84
2023/11/26 06:15:21;;;;;;;0.30;0.30;;;;;;;1.54;77.56;92378.19;2044496;70;20138;-84
2023/11/26 06:17:47;;;;;;;0.52;0.40;;;;;;;1.53;77.64;92385.75;2047529;70;20689;-84
2023/11/26 06:20:13;;;;;;;1.60;0.30;;;;;;;1.56;77.51;92389.47;2047541;70;20603;-84
2023/11/26 06:22:39;;;;;;;0.22;0.22;;;;;;;1.58;77.02;92389.63;2047601;70;20162;-84
2023/11/26 06:25:07;;;;;;;0.32;0.30;;;;;;;1.45;77.25;92390.59;2047574;70;20249;-85
2023/11/26 06:27:32;;;;;;;1.25;0.70;;;;;;;1.56;77.46;92399.81;2047578;70;20147;-84
2023/11/26 06:29:58;;;;;;;0.30;0.30;;;;;;;1.55;77.17;92407.38;2047660;70;20153;-83
2023/11/26 06:32:24;;;;;;;0.30;0.20;;;;;;;1.58;77.28;92400.72;2047606;70;20157;-83
2023/11/26 06:34:50;;;;;;;1.08;0.40;;;;;;;1.55;77.18;92398.34;2047562;70;20161;-84
2023/11/26 06:37:16;;;;;;;1.00;0.40;;;;;;;1.55;77.22;92407.38;2044332;70;20150;-84
2023/11/26 06:39:42;;;;;;;1.27;0.30;;;;;;;1.52;77.35;92402.97;2048601;70;20636;-84
2023/11/26 06:42:07;;;;;;;0.30;0.30;;;;;;;1.53;77.35;92410.00;2048654;70;20587;-84
2023/11/26 06:44:33;;;;;;;1.38;0.40;;;;;;;1.55;77.02;92418.50;2048681;70;20150;-83
2023/11/26 06:46:59;;;;;;;0.75;0.50;;;;;;;1.53;76.84;92424.59;2048572;70;20142;-81
2023/11/26 06:49:24;;;;;;;0.40;0.40;;;;;;;1.54;76.93;92422.56;2048762;70;20173;-84
2023/11/26 06:51:53;;;;;;;1.27;0.63;;;;;;;1.53;76.56;92410.00;2048624;70;20142;-84
2023/11/26 06:54:19;;;;;;;0.43;0.40;;;;;;;1.54;76.99;92422.56;2048574;70;20233;-89
2023/11/26 06:56:44;;;;;;;0.47;0.40;;;;;;;1.52;76.42;92431.47;2048594;70;20201;-84
2023/11/26 06:59:11;;;;;;;0.80;0.40;;;;;;;1.56;76.50;92439.41;2048703;70;20150;-81
2023/11/26 07:01:36;;;;;;;0.75;0.43;;;;;;;1.56;76.43;92438.66;2048615;70;20150;-80
2023/11/26 07:04:02;;;;;;;0.70;0.30;;;;;;;1.57;76.23;92435.34;2048743;70;20225;-81
2023/11/26 07:06:28;;;;;;;0.40;0.40;;;;;;;1.63;76.55;92455.28;2048742;70;20147;-80
2023/11/26 07:08:53;;;;;;;0.52;0.38;;;;;;;1.66;76.35;92450.66;2048491;70;20656;-81
2023/11/26 07:11:24;;;;;;;1.85;0.40;;;;;;;1.66;76.27;92459.72;2048565;70;20526;-85
2023/11/26 07:13:51;;;;;;;0.50;0.50;;;;;;;1.69;76.22;92466.91;2048673;70;20142;-82
2023/11/26 07:16:18;;;;;;;1.52;1.30;;;;;;;1.71;76.14;92475.44;2048417;70;20155;-82
2023/11/26 07:18:44;;;;;;;2.28;1.20;;;;;;;1.65;76.38;92469.34;2048533;70;20237;-80
2023/11/26 07:21:10;;;;;;;1.52;1.33;;;;;;;1.63;76.63;92471.94;2048567;70;20147;-81
2023/11/26 07:23:36;;;;;;;3.63;2.33;;;;;;;1.65;76.53;92474.13;2048558;70;20310;-84
2023/11/26 07:26:12;;;;;;;4.20;1.92;;;;;;;1.73;76.63;92478.38;2048549;70;20158;-81
2023/11/26 07:28:39;;;;;;;2.88;1.83;;;;;;;1.85;75.78;92475.22;2045345;70;20189;-81
2023/11/26 07:31:12;;;;;;;2.60;2.10;;;;;;;1.91;76.11;92478.53;2048346;70;20558;-81
2023/11/26 07:33:38;;;;;;;4.80;2.40;;;;;;;1.81;76.15;92491.50;2048509;70;20169;-81
2023/11/26 07:36:22;;;;;;;5.72;3.28;;;;;;;1.70;76.09;92484.31;2048528;70;20639;-81
2023/11/26 07:38:55;;;;;;;7.53;5.13;;;;;;;1.38;77.63;92487.72;2048553;70;20134;-80
2023/11/26 07:41:21;;;;;;;;;;;;;;;1.70;77.13;92500.97;2048769;70;20157;-81
2023/11/26 07:43:49;;;;;;;9.23;5.45;;;;;;;1.78;76.79;92496.88;2045201;70;20054;-80
2023/11/26 07:46:15;;;;;;;9.27;5.20;;;;;;;2.04;75.74;92492.19;2048403;70;20318;-80
2023/11/26 07:48:42;;;;;;;7.93;4.50;;;;;;;2.25;74.58;92492.66;2048488;70;20182;-81
2023/11/26 07:51:08;;;;;;;8.38;4.75;;;;;;;2.28;75.56;92504.66;2047826;70;20143;-80
2023/11/26 07:53:33;;;;;;;6.32;4.47;;;;;;;2.28;75.02;92497.06;2047910;70;20151;-80
2023/11/26 07:56:00;;;;;;;9.27;4.60;;;;;;;2.13;74.93;92496.41;2047911;70;20238;-80
2023/11/26 07:58:28;;;;;;;8.95;4.45;;;;;;;1.97;75.12;92488.13;2047872;70;20241;-80
2023/11/26 08:00:54;;;;;;;9.13;4.68;;;;;;;2.20;75.45;92493.59;2047751;70;20623;-80
2023/11/26 08:03:22;;;;;;;6.75;4.60;;;;;;;2.34;74.91;92498.91;2047805;70;20154;-81
2023/11/26 08:05:48;;;;;;;7.75;4.47;;;;;;;2.51;74.23;92501.78;2047930;70;20151;-80
2023/11/26 08:08:15;;;;;;;10.43;4.90;;;;;;;2.52;74.16;92498.47;2047989;70;20186;-80
2023/11/26 08:10:42;;;;;;;9.90;4.72;;;;;;;2.41;74.21;92501.66;2048203;70;20587;-79
2023/11/26 08:13:08;;;;;;;9.13;4.47;;;;;;;2.52;73.86;92497.69;2047881;70;20185;-79
2023/11/26 08:15:34;;;;;;;8.43;4.32;;;;;;;2.59;73.47;92502.50;2047887;70;20250;-79
2023/11/26 08:18:00;;;;;;;7.70;4.53;;;;;;;2.61;73.58;92505.47;2047702;70;20198;-78
2023/11/26 08:20:26;;;;;;;9.77;4.80;;;;;;;2.77;73.93;92511.66;2048021;70;20150;-79
2023/11/26 08:22:52;;;;;;;9.50;4.90;;;;;;;2.92;73.47;92516.38;2044650;70;20242;-80
2023/11/26 08:25:20;;;;;;;8.50;4.45;;;;;;;2.94;72.54;92514.53;2047837;70;20143;-80
2023/11/26 08:27:48;;;;;;;10.88;6.15;;;;;;;2.69;72.99;92517.25;2044728;70;20147;-82
2023/11/26 08:30:30;;;;;;;8.63;4.68;;;;;;;2.84;72.62;92515.69;2047836;70;20607;-80
2023/11/26 08:33:02;;;;;;;8.10;4.63;;;;;;;3.15;71.97;92513.44;2041799;70;20229;-81
2023/11/26 08:35:30;;;;;;;8.27;4.30;;;;;;;3.36;72.17;92510.34;2047857;70;20178;-81
2023/11/26 08:37:56;;;;;;;8.45;4.20;;;;;;;3.47;71.63;92507.06;2044620;70;20134;-80
2023/11/26 08:40:25;;;;;;;8.63;4.22;;;;;;;3.48;71.47;92508.53;2051630;70;20154;-81
2023/11/26 08:42:54;;;;;;;8.15;4.22;;;;;;;3.24;73.07;92496.88;2052288;70;20150;-81
2023/11/26 08:45:24;;;;;;;7.20;4.75;;;;;;;3.42;73.63;92505.28;2048247;70;20141;-81
2023/11/26 08:47:51;;;;;;;10.38;6.03;;;;;;;3.80;73.40;92491.75;2047698;70;20150;-81
2023/11/26 08:50:16;;;;;;;9.27;5.10;;;;;;;2.78;73.65;92499.22;2047789;70;20183;-81
2023/11/26 08:52:42;;;;;;;9.82;4.40;;;;;;;3.53;71.98;92511.13;2044589;70;20154;-81
2023/11/26 08:55:09;;;;;;;8.40;4.72;;;;;;;3.86;70.35;92511.00;2044506;70;20146;-81
2023/11/26 08:57:44;;;;;;;9.63;4.38;;;;;;;4.20;70.12;92515.84;2047899;70;20175;-80
2023/11/26 09:00:10;;;;;;;9.38;4.70;;;;;;;3.79;71.57;92509.00;2047763;70;20602;-81
2023/11/26 09:02:40;;;;;;;8.32;4.15;;;;;;;3.91;68.46;92504.44;2047496;70;20169;-80
2023/11/26 09:05:10;;;;;;;8.07;4.25;;;;;;;4.26;67.90;92507.97;2047725;70;20155;-80
2023/11/26 09:07:44;;;;;;;6.40;3.97;;;;;;;5.02;67.65;92511.09;2047867;70;20182;-80
2023/11/26 09:10:12;;;;;;;9.88;3.85;;;;;;;4.99;66.51;92512.97;2047822;70;20146;-80
2023/11/26 09:12:37;;;;;;;6.65;3.53;;;;;;;5.28;65.82;92512.41;2047808;70;20143;-80
2023/11/26 09:15:07;;;;;;;6.35;2.90;;;;;;;5.40;64.96;92510.53;2047729;70;20158;-80
2023/11/26 09:17:37;;;;;;;5.93;3.17;;;;;;;5.48;64.72;92507.63;2047689;70;20166;-81
2023/11/26 09:20:03;;;;;;;2.83;2.03;;;;;;;5.50;63.29;92514.09;2044533;70;20607;-80
2023/11/26 09:22:34;;;;;;;3.25;2.22;;;;;;;5.89;64.64;92521.84;2044627;70;20157;-81
2023/11/26 09:25:02;;;;;;;3.10;2.00;;;;;;;5.05;63.67;92526.69;2047823;70;20149;-80
2023/11/26 09:27:29;;;;;;;4.70;2.20;;;;;;;5.40;64.59;92530.06;2047873;70;20147;-80
2023/11/26 09:29:55;;;;;;;3.03;1.80;;;;;;;5.39;63.11;92533.44;2044425;70;20159;-80
2023/11/26 09:32:20;;;;;;;4.75;1.85;;;;;;;5.76;63.42;92537.69;2047624;70;20139;-80
2023/11/26 09:34:47;;;;;;;3.53;2.20;;;;;;;5.75;63.47;92539.00;2047714;70;20241;-80
2023/11/26 09:37:14;;;;;;;3.63;1.90;;;;;;;5.55;62.65;92529.13;2047684;70;20225;-80
2023/11/26 09:39:40;;;;;;;2.95;1.85;;;;;;;4.83;62.77;92523.63;2047655;70;20162;-80
2023/11/26 09:42:06;;;;;;;1.10;0.95;;;;;;;4.56;63.87;92531.22;2044474;70;20229;-81
2023/11/26 09:44:32;;;;;;;2.05;1.30;;;;;;;5.01;63.82;92534.75;2047717;70;20578;-80
2023/11/26 09:46:58;;;;;;;2.63;1.60;;;;;;;5.23;62.59;92527.38;2047616;70;20659;-80
2023/11/26 09:49:25;;;;;;;2.45;1.40;;;;;;;5.35;62.20;92528.28;2047636;70;20222;-80
2023/11/26 09:52:01;;;;;;;2.30;1.20;;;;;;;4.69;62.31;92519.72;2047709;70;20369;-81
2023/11/26 09:54:27;;;;;;;3.97;1.40;;;;;;;4.27;63.49;92514.28;2047680;70;20257;-80
2023/11/26 09:56:55;;;;;;;3.22;1.90;;;;;;;5.15;62.58;92510.00;2044332;70;20186;-80
2023/11/26 09:59:29;;;;;;;2.65;2.22;;;;;;;5.81;61.90;92517.13;2047750;70;20186;-80
2023/11/26 10:01:54;;;;;;;1.88;1.38;;;;;;;5.32;62.00;92519.03;2047628;70;20226;-81
2023/11/26 10:04:21;;;;;;;3.60;1.70;;;;;;;5.59;61.65;92516.19;2047637;70;20241;-80
2023/11/26 10:06:54;;;;;;;3.30;1.70;;;;;;;5.91;61.88;92517.16;2047652;70;20151;-81
2023/11/26 10:09:22;;;;;;;2.95;1.77;;;;;;;6.06;61.47;92519.69;2044412;70;20162;-81
2023/11/26 10:11:48;;;;;;;3.05;1.60;;;;;;;4.87;62.84;92519.69;2047694;70;20194;-80
2023/11/26 10:14:20;;;;;;;5.72;3.42;;;;;;;4.68;63.90;92509.16;2047596;70;20147;-83
2023/11/26 10:16:46;;;;;;;7.15;3.85;;;;;;;5.31;63.21;92517.56;2047502;70;20169;-82
2023/11/26 10:19:28;;;;;;;5.60;2.95;;;;;;;4.57;63.78;92515.97;2047677;70;20186;-80
2023/11/26 10:21:58;;;;;;;3.77;2.50;;;;;;;5.38;62.88;92504.06;2047720;70;20522;-82
2023/11/26 10:24:27;;;;;;;10.07;5.95;;;;;;;5.98;60.08;92501.59;2047764;70;20282;-82
2023/11/26 10:26:54;;;;;;;8.18;4.53;;;;;;;6.23;62.31;92498.53;2047575;70;20166;-82
2023/11/26 10:29:25;;;;;;;8.15;4.10;;;;;;;7.56;59.77;92500.94;2047940;70;20218;-79
2023/11/26 10:32:00;;;;;;;5.63;2.95;;;;;;;8.95;58.71;92507.22;2054068;70;20266;-80
2023/11/26 10:34:26;;;;;;;4.95;3.00;;;;;;;9.08;55.23;92505.94;2047986;70;20139;-81
2023/11/26 10:36:52;;;;;;;3.25;1.80;;;;;;;8.43;55.08;92504.56;2047650;70;20139;-81
2023/11/26 10:39:18;;;;;;;2.78;2.00;;;;;;;8.85;55.14;92493.28;2047645;70;20143;-83
2023/11/26 10:41:47;;;;;;;3.72;2.17;;;;;;;8.55;54.73;92508.91;2047632;70;20159;-81
2023/11/26 10:44:17;;;;;;;4.32;2.20;;;;;;;7.82;56.47;92501.25;2047739;70;20182;-81
2023/11/26 10:46:48;;;;;;;3.38;2.10;;;;;;;9.15;54.51;92502.88;2047412;70;20225;-81
2023/11/26 10:49:40;;;;;;;4.25;2.40;;;;;;;8.98;54.63;92508.06;2047525;70;20155;-80
2023/11/26 10:52:22;;;;;;;5.60;3.47;;;;;;;9.01;54.50;92499.19;2047572;70;20221;-81
2023/11/26 10:55:08;;;;;;;7.07;3.70;;;;;;;11.07;53.16;92488.84;2047469;70;20507;-79
2023/11/26 10:57:37;;;;;;;8.93;3.85;;;;;;;11.85;50.64;92476.13;2047555;70;20143;-84
2023/11/26 11:00:06;;;;;;;6.72;3.50;;;;;;;15.12;46.71;92484.25;2047556;70;20157;-82
2023/11/26 11:02:32;;;;;;;6.07;2.65;;;;;;;14.68;43.77;92488.78;2047349;70;20177;-80
2023/11/26 11:04:59;;;;;;;4.40;2.90;;;;;;;14.92;43.06;92486.97;2047497;70;20222;-80
2023/11/26 11:07:25;;;;;;;4.55;3.25;;;;;;;14.31;41.55;92489.28;2047633;70;20610;-81
2023/11/26 11:09:57;;;;;;;4.63;3.25;;;;;;;16.30;40.23;92490.16;2044274;70;20527;-82
2023/11/26 11:12:25;;;;;;;8.05;4.03;;;;;;;15.43;42.04;92488.28;2047651;70;20238;-80
2023/11/26 11:14:54;;;;;;;5.63;3.65;;;;;;;16.35;40.64;92483.22;2047412;70;20158;-81
2023/11/26 11:17:29;;;;;;;3.85;2.97;;;;;;;11.75;44.14;92484.03;2047334;70;20628;-81
2023/11/26 11:19:55;;;;;;;4.28;2.95;;;;;;;13.58;42.74;92486.75;2044146;70;20162;-81
2023/11/26 11:22:43;;;;;;;4.50;2.50;;;;;;;11.86;45.75;92488.84;2047662;70;20149;-81
2023/11/26 11:25:14;;;;;;;2.75;2.15;;;;;;;11.72;44.44;92480.34;2047801;70;20174;-81
2023/11/26 11:27:58;;;;;;;4.75;2.35;;;;;;;11.04;47.09;92478.06;2048019;70;20234;-80
2023/11/26 11:30:40;;;;;;;3.72;2.55;;;;;;;11.52;46.91;92499.00;2048108;70;20182;-81
2023/11/26 11:33:07;;;;;;;5.90;3.60;;;;;;;11.92;46.14;92497.66;2044789;70;20194;-81
2023/11/26 11:35:36;;;;;;;5.55;3.50;;;;;;;10.93;48.13;92494.41;2044632;70;20622;-81
2023/11/26 11:38:04;;;;;;;5.95;3.50;;;;;;;10.57;49.15;92489.53;2047988;70;20230;-81
2023/11/26 11:41:00;;;;;;;5.63;3.47;;;;;;;10.04;49.49;92486.47;2047918;70;20234;-80
2023/11/26 11:43:30;;;;;;;6.80;3.05;;;;;;;10.55;49.88;92492.25;2044814;70;20182;-80
2023/11/26 11:45:56;;;;;;;3.70;2.38;;;;;;;9.47;49.56;92483.75;2051128;70;20177;-80
2023/11/26 11:48:40;;;;;;;4.32;2.50;;;;;;;10.15;50.30;92486.44;2051238;70;20150;-81